Time;durP1;ratioP1;P1;durP2;ratioP2;P2;SDS_P1;SDS_P2;PMS_P1;PMS_P2;Temp;Humidity;BMP_temperature;BMP_pressure;BME280_temperature;BME280_humidity;BME280_pressure;Samples;Min_cycle;Max_cycle;Signal;HPM_P1;HPM_P2
2022/06/28 00:01:00;;;;;;;4.00;0.68;;;13.20;99.90;;;12.79;100.00;98294.78;5020193;28;20132;-67
2022/06/28 00:03:27;;;;;;;1.92;0.70;;;13.20;99.90;;;12.92;100.00;98289.00;5024138;28;20540;-66
2022/06/28 00:05:55;;;;;;;2.00;0.60;;;13.20;99.90;;;12.91;100.00;98284.72;5023377;28;20160;-66
2022/06/28 00:08:22;;;;;;;2.10;0.60;;;13.20;99.90;;;12.74;100.00;98287.97;5023099;28;20532;-65
2022/06/28 00:10:49;;;;;;;6.55;0.68;;;13.20;99.90;;;12.64;100.00;98286.66;5022338;28;20050;-65
2022/06/28 00:13:16;;;;;;;2.35;0.60;;;13.10;99.90;;;12.72;100.00;98283.75;5021383;28;20057;-66
2022/06/28 00:18:28;;;;;;;1.50;0.65;;;13.20;99.90;;;12.65;100.00;98280.53;5021667;28;20050;-66
2022/06/28 00:20:55;;;;;;;2.47;0.80;;;13.10;99.90;;;12.73;100.00;98277.66;5017882;28;20607;-66
2022/06/28 00:23:22;;;;;;;0.68;0.50;;;13.00;99.90;;;12.80;100.00;98275.63;5022296;28;20496;-67
2022/06/28 00:25:49;;;;;;;2.45;0.77;;;13.10;99.90;;;12.63;100.00;98282.34;5022765;28;20172;-66
2022/06/28 00:28:16;;;;;;;4.00;0.80;;;13.10;99.90;;;12.58;100.00;98278.25;5019522;28;20120;-66
2022/06/28 00:30:43;;;;;;;2.67;0.80;;;13.10;99.90;;;12.51;100.00;98285.44;5019818;28;20133;-64
2022/06/28 00:33:10;;;;;;;3.20;0.90;;;13.00;99.90;;;12.48;100.00;98275.16;5022412;28;20037;-66
2022/06/28 00:35:37;;;;;;;2.45;0.75;;;13.00;99.90;;;12.54;100.00;98280.97;5020531;28;20820;-66
2022/06/28 00:38:05;;;;;;;3.78;1.30;;;13.00;99.90;;;12.26;100.00;98289.00;5025122;28;20128;-66
2022/06/28 00:40:33;;;;;;;5.57;1.27;;;13.00;99.90;;;12.28;100.00;98291.53;5028462;28;20050;-66
2022/06/28 00:43:00;;;;;;;2.33;0.90;;;12.90;99.90;;;12.33;100.00;98300.00;5022948;28;20124;-64
2022/06/28 00:45:28;;;;;;;2.85;0.70;;;12.90;99.90;;;12.55;100.00;98298.28;5024506;28;20091;-66
2022/06/28 00:47:55;;;;;;;3.03;0.68;;;12.90;99.90;;;12.17;100.00;98297.16;5018800;28;20128;-65
2022/06/28 00:50:22;;;;;;;1.30;0.70;;;12.90;99.90;;;12.19;100.00;98294.50;5019497;28;20605;-65
2022/06/28 00:53:06;;;;;;;1.58;0.63;;;12.80;99.90;;;12.13;100.00;98288.63;5017630;28;20074;-64
2022/06/28 00:55:34;;;;;;;4.57;0.60;;;12.70;99.90;;;12.03;100.00;98289.84;5023055;28;20568;-65
2022/06/28 00:58:03;;;;;;;0.98;0.68;;;12.60;99.90;;;12.00;100.00;98294.34;5022336;28;20137;-67
2022/06/28 01:00:42;;;;;;;2.00;0.70;;;12.60;99.90;;;12.03;100.00;98289.00;5020920;28;20184;-67
2022/06/28 01:03:12;;;;;;;3.97;0.85;;;12.50;99.90;;;11.87;100.00;98283.50;5018160;28;20107;-67
2022/06/28 01:05:42;;;;;;;2.97;0.73;;;12.30;99.90;;;11.85;100.00;98286.13;5017985;28;20049;-64
2022/06/28 01:08:10;;;;;;;1.65;1.00;;;12.30;99.90;;;11.98;100.00;98286.59;5017696;28;20216;-64
2022/06/28 01:10:39;;;;;;;1.55;0.70;;;12.40;99.90;;;12.00;100.00;98289.13;5016966;28;20488;-64
2022/06/28 01:13:07;;;;;;;1.08;0.70;;;12.40;99.90;;;11.95;100.00;98278.03;5019036;28;20081;-66
2022/06/28 01:15:36;;;;;;;1.85;0.68;;;12.40;99.90;;;11.92;100.00;98284.19;5023724;28;20128;-65
2022/06/28 01:18:04;;;;;;;0.90;0.70;;;12.40;99.90;;;12.10;100.00;98278.31;5019936;28;20108;-66
2022/06/28 01:20:31;;;;;;;4.35;0.70;;;12.40;99.90;;;12.09;100.00;98273.19;5017065;28;20045;-65
2022/06/28 01:22:59;;;;;;;3.08;0.80;;;12.40;99.90;;;12.05;100.00;98269.84;5016174;28;20501;-64
2022/06/28 01:25:26;;;;;;;1.70;0.73;;;12.40;99.90;;;12.03;100.00;98263.84;5010867;28;20056;-66
2022/06/28 01:27:55;;;;;;;2.55;0.60;;;12.40;99.90;;;11.99;100.00;98274.41;5016320;28;20567;-65
2022/06/28 01:30:23;;;;;;;2.47;0.75;;;12.40;99.90;;;11.83;100.00;98274.94;5017963;28;20138;-65
2022/06/28 01:32:51;;;;;;;2.78;0.70;;;12.30;99.90;;;11.90;100.00;98280.78;5014374;28;20148;-65
2022/06/28 01:35:18;;;;;;;3.30;0.68;;;12.30;99.90;;;11.85;100.00;98275.72;5011509;28;20126;-65
2022/06/28 01:37:49;;;;;;;2.92;0.80;;;12.30;99.90;;;11.90;100.00;98273.00;5018577;28;20121;-65
2022/06/28 01:40:17;;;;;;;1.48;0.60;;;12.30;99.90;;;11.73;100.00;98279.63;5019070;28;20488;-66
2022/06/28 01:42:44;;;;;;;0.95;0.70;;;12.30;99.90;;;11.85;100.00;98275.72;5015937;28;20173;-65
2022/06/28 01:45:13;;;;;;;2.80;1.27;;;12.30;99.90;;;11.82;100.00;98277.63;5015605;28;20165;-66
2022/06/28 01:47:44;;;;;;;3.85;1.30;;;12.30;99.90;;;11.61;100.00;98274.88;5016908;28;20061;-67
2022/06/28 01:50:12;;;;;;;2.70;1.58;;;12.20;99.90;;;11.48;100.00;98282.25;5015656;28;20572;-68
2022/06/28 01:52:41;;;;;;;9.45;2.97;;;12.20;99.90;;;11.21;100.00;98284.06;5017904;28;20579;-66
2022/06/28 01:55:10;;;;;;;11.45;3.63;;;12.10;99.90;;;11.20;100.00;98284.09;5017614;28;20053;-66
2022/06/28 01:57:38;;;;;;;17.08;3.22;;;12.10;99.90;;;11.24;100.00;98283.97;5015401;28;20129;-67
2022/06/28 02:00:08;;;;;;;34.97;4.90;;;12.00;99.90;;;11.01;100.00;98284.72;5014027;28;20103;-67
2022/06/28 02:02:35;;;;;;;45.00;5.50;;;12.00;99.90;;;10.96;100.00;98302.19;5019965;28;20108;-66
2022/06/28 02:05:03;;;;;;;35.63;5.32;;;11.90;99.90;;;10.93;100.00;98307.50;5021284;28;20045;-66
2022/06/28 02:07:30;;;;;;;25.05;2.85;;;11.90;99.90;;;10.97;100.00;98310.84;5017616;28;20145;-65
2022/06/28 02:09:57;;;;;;;5.97;1.63;;;11.90;99.90;;;11.08;100.00;98314.81;5017140;28;20046;-67
2022/06/28 02:12:28;;;;;;;6.03;1.77;;;11.90;99.90;;;11.29;100.00;98326.22;5016247;28;20061;-66
2022/06/28 02:14:58;;;;;;;6.13;2.03;;;11.90;99.90;;;11.30;100.00;98333.13;5018681;28;20095;-67
2022/06/28 02:17:25;;;;;;;8.57;2.90;;;12.00;99.90;;;11.27;100.00;98329.78;5016518;28;20081;-66
2022/06/28 02:19:53;;;;;;;3.63;1.67;;;12.00;99.90;;;11.23;100.00;98336.81;5018225;28;20041;-66
2022/06/28 02:22:20;;;;;;;6.80;2.00;;;12.00;99.90;;;11.34;100.00;98335.63;5017703;28;20459;-67
2022/06/28 02:24:48;;;;;;;2.58;1.63;;;12.00;99.90;;;11.40;100.00;98338.84;5010848;28;20488;-66
2022/06/28 02:27:15;;;;;;;3.78;1.40;;;12.00;99.90;;;11.54;100.00;98334.94;5015006;28;20159;-67
2022/06/28 02:29:42;;;;;;;1.35;0.95;;;11.90;99.90;;;11.58;100.00;98342.56;5018412;28;20060;-67
2022/06/28 02:32:09;;;;;;;2.92;1.73;;;12.00;99.90;;;11.32;100.00;98335.69;5015012;28;20473;-67
2022/06/28 02:40:22;;;;;;;3.85;1.98;;;11.80;99.90;;;10.89;100.00;98337.91;5010512;28;20167;-66
2022/06/28 02:42:54;;;;;;;4.90;1.50;;;11.70;99.90;;;10.98;100.00;98343.72;5009269;28;20998;-66
2022/06/28 02:45:25;;;;;;;2.00;1.30;;;11.80;99.90;;;10.99;100.00;98333.28;5011718;28;20137;-66
2022/06/28 02:47:52;;;;;;;2.50;1.65;;;11.80;99.90;;;11.10;100.00;98340.72;5016907;28;20077;-66
2022/06/28 02:50:20;;;;;;;3.08;1.95;;;11.80;99.90;;;11.07;100.00;98346.88;5007228;28;20141;-66
2022/06/28 02:52:49;;;;;;;2.53;1.45;;;11.80;99.90;;;11.24;100.00;98340.25;5014469;28;20057;-66
2022/06/28 02:55:16;;;;;;;4.47;1.30;;;11.90;99.90;;;11.32;100.00;98342.63;5015526;28;20120;-66
2022/06/28 02:57:44;;;;;;;4.88;1.70;;;11.90;99.90;;;11.30;100.00;98340.91;5017150;28;20065;-67
2022/06/28 03:00:17;;;;;;;3.35;1.40;;;11.80;99.90;;;11.36;100.00;98349.41;5014980;28;20056;-66
2022/06/28 03:02:46;;;;;;;2.00;1.10;;;11.70;99.90;;;11.25;100.00;98342.81;5015069;28;20052;-67
2022/06/28 03:05:17;;;;;;;3.05;1.10;;;11.70;99.90;;;11.28;100.00;98347.06;5014472;28;20053;-68
2022/06/28 03:07:45;;;;;;;2.83;0.98;;;11.60;99.90;;;11.19;100.00;98348.22;5011450;28;20133;-67
2022/06/28 03:10:13;;;;;;;2.95;1.20;;;11.70;99.90;;;11.25;100.00;98350.63;5014789;28;20152;-65
2022/06/28 03:12:40;;;;;;;1.92;0.93;;;11.70;99.90;;;11.18;100.00;98337.88;5013943;28;20073;-65
2022/06/28 03:15:08;;;;;;;1.98;0.90;;;11.60;99.90;;;11.22;100.00;98335.13;5014553;28;20045;-65
2022/06/28 03:17:35;;;;;;;3.33;1.10;;;11.60;99.90;;;11.15;100.00;98332.78;5015309;28;20046;-66
2022/06/28 03:20:03;;;;;;;1.40;0.93;;;11.60;99.90;;;11.08;100.00;98330.41;5019869;28;20050;-66
2022/06/28 03:22:30;;;;;;;3.72;1.08;;;11.60;99.90;;;11.09;100.00;98334.69;5017182;28;20050;-66
2022/06/28 03:24:57;;;;;;;3.47;0.93;;;11.50;99.90;;;10.89;100.00;98335.31;5019514;28;20045;-67
2022/06/28 03:27:24;;;;;;;4.20;1.20;;;11.50;99.90;;;10.79;100.00;98327.88;5022976;28;20496;-65
2022/06/28 03:29:51;;;;;;;2.95;0.85;;;11.50;99.90;;;10.82;100.00;98343.34;5020673;28;20160;-65
2022/06/28 03:32:19;;;;;;;5.20;0.95;;;11.40;99.90;;;10.74;100.00;98342.72;5016329;28;20132;-66
2022/06/28 03:34:47;;;;;;;6.22;1.23;;;11.40;99.90;;;10.77;100.00;98342.66;5018236;28;20544;-66
2022/06/28 03:37:15;;;;;;;5.43;1.00;;;11.40;99.90;;;10.76;100.00;98344.38;5021063;28;20132;-66
2022/06/28 03:39:42;;;;;;;2.15;0.93;;;11.40;99.90;;;10.73;100.00;98351.44;5016141;28;20057;-66
2022/06/28 03:42:10;;;;;;;2.67;0.90;;;11.40;99.90;;;10.78;100.00;98350.38;5021517;28;20053;-65
2022/06/28 03:44:37;;;;;;;1.98;0.80;;;11.40;99.90;;;10.84;100.00;98358.00;5018828;28;20064;-67
2022/06/28 03:47:05;;;;;;;4.05;1.40;;;11.50;99.90;;;10.86;100.00;98356.19;5020039;28;20205;-66
2022/06/28 03:49:32;;;;;;;3.03;0.70;;;11.40;99.90;;;11.02;100.00;98356.56;5019076;28;20477;-66
2022/06/28 03:51:59;;;;;;;3.00;0.90;;;11.40;99.90;;;10.96;100.00;98358.50;5015868;28;20081;-65
2022/06/28 03:54:27;;;;;;;3.00;0.98;;;11.50;99.90;;;11.03;100.00;98353.06;5019582;28;20488;-66
2022/06/28 03:56:54;;;;;;;1.73;0.80;;;11.40;99.90;;;11.09;100.00;98358.06;5020426;28;20132;-66
2022/06/28 03:59:21;;;;;;;3.25;0.90;;;11.50;99.90;;;11.08;100.00;98356.38;5018884;28;20616;-67
2022/06/28 04:01:48;;;;;;;2.50;0.75;;;11.50;99.90;;;11.18;100.00;98350.88;5018428;28;20128;-66
2022/06/28 04:04:16;;;;;;;3.33;0.93;;;11.60;99.90;;;11.14;100.00;98357.06;5018398;28;20429;-66
2022/06/28 04:06:43;;;;;;;1.30;0.80;;;11.60;99.90;;;11.17;100.00;98352.59;5019729;28;20052;-65
2022/06/28 04:09:10;;;;;;;3.65;1.10;;;11.60;99.90;;;11.05;100.00;98358.22;5018818;28;20072;-67
2022/06/28 04:11:37;;;;;;;2.78;0.93;;;11.70;99.90;;;10.87;100.00;98357.88;5017937;28;20049;-65
2022/06/28 04:14:04;;;;;;;5.90;1.33;;;11.60;99.90;;;10.59;100.00;98364.84;5015932;28;20424;-65
2022/06/28 04:16:32;;;;;;;2.60;1.30;;;11.70;99.90;;;10.69;100.00;98363.66;5021741;28;20382;-66
2022/06/28 04:18:59;;;;;;;1.75;1.38;;;11.60;99.90;;;10.74;100.00;98372.16;5017641;28;20045;-66
2022/06/28 04:21:27;;;;;;;3.88;1.50;;;11.70;99.90;;;10.85;100.00;98377.00;5020115;28;20053;-67
2022/06/28 04:23:54;;;;;;;2.42;1.40;;;11.70;99.90;;;10.77;100.00;98372.06;5019478;28;20132;-66
2022/06/28 04:26:21;;;;;;;3.00;1.10;;;11.80;99.90;;;11.06;100.00;98378.09;5018429;28;20093;-66
2022/06/28 04:28:48;;;;;;;1.70;1.15;;;11.80;99.90;;;11.02;100.00;98381.69;5019975;28;20482;-66
2022/06/28 04:31:17;;;;;;;3.20;1.33;;;11.80;99.90;;;11.09;100.00;98372.81;5017115;28;20123;-65
2022/06/28 04:33:44;;;;;;;1.65;1.08;;;11.90;99.90;;;11.09;100.00;98380.59;5019715;28;20060;-65
2022/06/28 04:36:11;;;;;;;3.10;1.02;;;12.00;99.90;;;11.38;100.00;98389.19;5019632;28;20136;-66
2022/06/28 04:38:38;;;;;;;2.67;2.28;;;12.10;99.90;;;11.25;100.00;98381.81;5017198;28;20137;-66
2022/06/28 04:41:06;;;;;;;1.52;1.10;;;12.20;99.90;;;11.49;100.00;98387.97;5014372;28;20654;-66
2022/06/28 04:43:32;;;;;;;5.75;1.65;;;12.30;99.90;;;11.34;100.00;98380.66;5016975;28;20483;-65
2022/06/28 04:46:00;;;;;;;2.53;1.30;;;12.40;99.90;;;11.34;100.00;98390.22;5019538;28;20721;-66
2022/06/28 04:48:27;;;;;;;1.77;0.90;;;12.50;99.90;;;11.62;100.00;98384.94;5021439;28;20133;-64
2022/06/28 04:50:54;;;;;;;2.00;1.00;;;12.50;99.90;;;11.73;100.00;98388.88;5016939;28;20166;-66
2022/06/28 04:53:21;;;;;;;1.55;0.88;;;12.60;99.90;;;12.14;100.00;98383.16;5022990;28;20487;-65
2022/06/28 04:55:51;;;;;;;2.72;1.13;;;12.80;99.90;;;12.23;100.00;98377.63;5018024;28;20061;-65
2022/06/28 04:58:18;;;;;;;2.83;1.00;;;13.00;99.90;;;12.33;100.00;98376.34;5017522;28;20099;-67
2022/06/28 05:00:45;;;;;;;1.80;1.13;;;13.00;99.90;;;12.27;100.00;98376.59;5013892;28;20136;-67
2022/06/28 05:03:32;;;;;;;3.50;1.42;;;13.00;99.90;;;12.04;100.00;98380.03;5018417;28;20054;-65
2022/06/28 05:05:59;;;;;;;2.67;1.33;;;13.10;99.90;;;12.09;100.00;98377.28;5016645;28;20180;-68
2022/06/28 05:08:26;;;;;;;1.60;1.02;;;13.20;99.90;;;12.26;100.00;98382.69;5019608;28;20052;-67
2022/06/28 05:10:53;;;;;;;3.38;1.95;;;13.20;99.90;;;11.90;100.00;98384.84;5019912;28;20049;-67
2022/06/28 05:13:20;;;;;;;1.65;1.20;;;13.30;99.90;;;12.22;100.00;98375.91;5018480;28;20111;-66
2022/06/28 05:15:47;;;;;;;3.45;1.33;;;13.30;99.90;;;12.31;100.00;98388.56;5018762;28;20041;-67
2022/06/28 05:18:15;;;;;;;1.20;0.80;;;13.40;99.90;;;12.76;100.00;98382.56;5014594;28;20141;-66
2022/06/28 05:20:42;;;;;;;2.40;1.10;;;13.60;99.90;;;12.87;100.00;98376.94;5017811;28;20100;-65
2022/06/28 05:23:09;;;;;;;2.10;0.93;;;13.80;99.90;;;13.26;100.00;98376.25;5017376;28;20098;-65
2022/06/28 05:25:36;;;;;;;3.00;1.40;;;14.00;99.90;;;12.92;100.00;98367.16;5016983;28;20046;-67
2022/06/28 05:28:03;;;;;;;2.40;0.85;;;14.10;99.90;;;13.29;100.00;98368.31;5019467;28;20169;-64
2022/06/28 05:30:30;;;;;;;2.10;0.88;;;14.20;99.90;;;13.65;100.00;98364.25;5019791;28;20046;-65
2022/06/28 05:32:58;;;;;;;1.95;0.80;;;14.30;99.90;;;13.86;100.00;98365.94;5017388;28;20088;-66
2022/06/28 05:35:25;;;;;;;1.42;0.88;;;14.40;99.90;;;13.99;100.00;98361.88;5009769;28;20497;-65
2022/06/28 05:37:52;;;;;;;2.65;0.70;;;14.60;99.90;;;14.16;100.00;98360.28;5010855;28;20535;-66
2022/06/28 05:40:19;;;;;;;2.75;0.80;;;14.80;99.90;;;14.02;100.00;98348.69;5018434;28;20042;-67
2022/06/28 05:42:46;;;;;;;2.88;0.80;;;14.90;99.90;;;14.42;100.00;98353.91;5015945;28;20064;-66
2022/06/28 05:45:13;;;;;;;2.95;1.38;;;;;;;14.17;100.00;98341.94;5022559;28;20046;-66
2022/06/28 05:47:41;;;;;;;4.47;1.30;;;15.20;99.90;;;14.51;100.00;98339.59;5016968;28;20164;-67
2022/06/28 05:50:09;;;;;;;5.10;1.20;;;15.30;99.90;;;14.76;100.00;98336.69;5017980;28;20085;-65
2022/06/28 05:52:36;;;;;;;4.97;1.00;;;15.50;99.90;;;14.93;100.00;98338.50;5015380;28;20136;-65
2022/06/28 05:55:04;;;;;;;1.73;0.80;;;15.70;99.90;;;15.21;100.00;98332.75;5020782;28;20459;-66
2022/06/28 05:57:31;;;;;;;1.80;0.80;;;16.00;99.90;;;15.42;100.00;98330.88;5020909;28;20100;-68
2022/06/28 05:59:58;;;;;;;2.70;0.88;;;16.10;99.90;;;15.34;100.00;98335.63;5018649;28;20041;-67
2022/06/28 06:02:25;;;;;;;1.30;0.70;;;16.30;99.90;;;15.53;100.00;98339.03;5017864;28;20560;-67
2022/06/28 06:04:54;;;;;;;1.60;0.60;;;16.40;99.90;;;15.80;100.00;98323.69;5017224;28;20068;-66
2022/06/28 06:07:22;;;;;;;3.65;0.70;;;16.60;99.90;;;15.95;100.00;98315.97;5017296;28;20053;-66
2022/06/28 06:09:49;;;;;;;1.48;0.55;;;16.80;99.90;;;16.27;100.00;98315.09;5019315;28;20132;-66
2022/06/28 06:12:16;;;;;;;1.05;0.50;;;;;;;16.52;100.00;98309.34;5016664;28;20125;-67
2022/06/28 06:14:43;;;;;;;5.38;0.65;;;17.30;99.90;;;16.64;100.00;98301.75;5016586;28;20049;-67
2022/06/28 06:17:10;;;;;;;1.75;0.55;;;17.50;99.90;;;16.69;100.00;98297.09;5016017;28;20081;-65
2022/06/28 06:19:37;;;;;;;3.58;0.68;;;17.70;99.90;;;16.62;100.00;98274.78;5018228;28;20144;-65
2022/06/28 06:22:04;;;;;;;1.13;0.50;;;17.70;99.90;;;16.87;100.00;98279.50;5017541;28;20124;-65
2022/06/28 06:24:31;;;;;;;3.50;0.60;;;17.90;99.90;;;16.79;100.00;98281.72;5015113;28;20563;-67
2022/06/28 06:26:58;;;;;;;1.35;0.70;;;18.00;99.90;;;16.94;100.00;98278.22;5016169;28;20121;-65
2022/06/28 06:29:26;;;;;;;0.77;0.60;;;18.00;99.90;;;17.12;100.00;98274.53;5011089;28;20132;-66
2022/06/28 06:31:53;;;;;;;1.83;0.80;;;18.00;99.90;;;17.04;100.00;98278.56;5015883;28;20128;-65
2022/06/28 06:34:20;;;;;;;1.73;0.70;;;18.20;99.90;;;17.23;100.00;98281.78;5015920;28;20045;-65
2022/06/28 06:36:47;;;;;;;1.85;0.52;;;18.20;99.90;;;17.27;100.00;98287.72;5012819;28;20665;-66
2022/06/28 06:39:14;;;;;;;2.72;0.60;;;18.30;99.90;;;17.30;100.00;98287.53;5016094;28;20046;-66
2022/06/28 06:41:42;;;;;;;2.35;0.70;;;18.40;99.90;;;17.43;100.00;98278.00;5013632;28;20726;-68
2022/06/28 06:44:09;;;;;;;1.35;0.70;;;18.50;99.90;;;17.35;100.00;98252.19;5014908;28;20052;-65
2022/06/28 06:46:37;;;;;;;9.23;0.57;;;18.40;99.90;;;17.39;100.00;98246.78;5016098;28;20124;-64
2022/06/28 06:49:04;;;;;;;1.92;0.52;;;18.40;99.90;;;17.52;100.00;98235.47;5020071;28;20055;-66
2022/06/28 06:51:31;;;;;;;2.05;0.60;;;18.50;99.90;;;17.33;100.00;98225.22;5013158;28;20739;-65
2022/06/28 06:53:58;;;;;;;3.10;0.60;;;18.50;99.90;;;17.41;100.00;98224.75;5013981;28;20512;-66
2022/06/28 06:56:26;;;;;;;5.05;0.80;;;18.50;99.90;;;17.34;100.00;98211.16;5014741;28;20073;-64
2022/06/28 06:58:53;;;;;;;1.95;0.60;;;18.40;99.90;;;17.43;100.00;98203.69;5016755;28;20124;-65
2022/06/28 07:01:20;;;;;;;2.50;0.73;;;18.40;99.90;;;17.54;100.00;98194.22;5013266;28;20053;-65
2022/06/28 07:04:08;;;;;;;3.30;0.90;;;18.50;99.90;;;17.76;100.00;98188.47;5015676;28;20111;-65
2022/06/28 07:06:36;;;;;;;2.65;0.75;;;18.70;99.90;;;17.88;100.00;98199.19;5014534;28;20058;-65
2022/06/28 07:09:04;;;;;;;5.85;2.00;;;18.80;99.90;;;17.88;100.00;98194.78;5019129;28;20125;-65
2022/06/28 07:11:32;;;;;;;2.65;0.95;;;18.90;99.90;;;17.77;100.00;98197.22;5017726;28;20045;-65
2022/06/28 07:14:00;;;;;;;2.80;0.70;;;18.90;99.90;;;18.02;100.00;98198.31;5013012;28;20128;-65
2022/06/28 07:16:27;;;;;;;2.63;0.90;;;19.00;99.90;;;18.04;100.00;98204.31;5021450;28;20791;-65
2022/06/28 07:18:57;;;;;;;4.47;1.38;;;19.00;99.90;;;17.72;100.00;98196.63;5014874;28;20463;-65
2022/06/28 07:21:25;;;;;;;3.65;0.80;;;19.10;99.90;;;18.07;100.00;98204.97;5016155;28;20191;-65
2022/06/28 07:23:52;;;;;;;1.52;0.70;;;19.10;99.90;;;18.13;100.00;98201.97;5012494;28;20062;-66
2022/06/28 07:26:19;;;;;;;2.17;0.60;;;19.10;99.90;;;18.02;100.00;98193.06;5014445;28;20071;-65
2022/06/28 07:28:47;;;;;;;1.75;0.50;;;19.20;99.90;;;18.09;100.00;98181.25;5013513;28;20133;-66
2022/06/28 07:31:15;;;;;;;4.28;0.60;;;19.20;99.90;;;18.14;100.00;98169.50;5010502;28;20619;-65
2022/06/28 07:33:42;;;;;;;1.77;0.50;;;19.10;99.90;;;18.16;100.00;98158.91;5017278;28;20073;-65
2022/06/28 07:36:09;;;;;;;3.95;0.60;;;19.20;99.90;;;18.29;100.00;98158.94;5017618;28;20050;-66
2022/06/28 07:38:36;;;;;;;8.05;0.50;;;19.30;99.90;;;18.30;100.00;98155.38;5014388;28;20136;-66
2022/06/28 07:41:03;;;;;;;1.42;0.50;;;19.30;99.90;;;18.71;100.00;98157.91;5016391;28;20046;-66
2022/06/28 07:43:30;;;;;;;2.58;0.70;;;19.50;99.90;;;18.82;100.00;98165.13;5017023;28;20085;-66
2022/06/28 07:45:58;;;;;;;2.95;0.90;;;19.60;99.90;;;18.83;100.00;98153.66;5015386;28;20066;-66
2022/06/28 07:48:25;;;;;;;1.63;0.50;;;19.80;99.90;;;18.98;100.00;98155.25;5013194;28;20116;-66
2022/06/28 07:53:38;;;;;;;2.60;0.68;;;19.80;99.90;;;18.98;100.00;98151.78;5014634;28;20041;-66
2022/06/28 07:56:05;;;;;;;5.95;0.70;;;19.90;99.90;;;18.73;100.00;98156.03;5013602;28;20088;-66
2022/06/28 07:58:32;;;;;;;2.15;0.60;;;19.80;99.90;;;18.81;100.00;98145.84;5014314;28;20084;-65
2022/06/28 08:01:00;;;;;;;2.33;0.75;;;19.80;99.90;;;18.85;100.00;98135.97;5014635;28;20582;-66
2022/06/28 08:03:27;;;;;;;2.10;0.60;;;19.70;99.90;;;19.08;100.00;98141.47;5015977;28;20141;-66
2022/06/28 08:05:54;;;;;;;1.73;0.70;;;19.90;99.90;;;19.12;100.00;98129.78;5016493;28;20154;-67
2022/06/28 08:08:23;;;;;;;3.67;0.65;;;19.90;99.90;;;18.88;100.00;98121.78;5009507;28;20059;-67
2022/06/28 08:10:50;;;;;;;3.72;0.60;;;19.90;99.90;;;19.36;100.00;98125.47;5018159;28;20424;-67
2022/06/28 08:13:17;;;;;;;1.92;0.57;;;20.10;99.90;;;19.48;100.00;98126.41;5016492;28;20140;-67
2022/06/28 08:15:45;;;;;;;3.08;0.52;;;20.20;99.90;;;19.71;100.00;98130.06;5017366;28;20057;-66
2022/06/28 08:18:13;;;;;;;2.22;0.60;;;20.40;99.90;;;19.83;100.00;98123.06;5019538;28;20065;-67
2022/06/28 08:20:41;;;;;;;2.85;0.60;;;20.60;99.90;;;20.03;100.00;98122.50;5015301;28;20737;-66
2022/06/28 08:23:08;;;;;;;11.70;0.75;;;20.60;99.90;;;19.88;100.00;98118.31;5019759;28;20449;-67
2022/06/28 08:25:36;;;;;;;3.72;0.52;;;20.70;99.90;;;19.64;100.00;98121.72;5018125;28;20081;-66
2022/06/28 08:28:04;;;;;;;1.73;0.60;;;20.60;99.90;;;19.98;100.00;98118.47;5018666;28;20057;-66
2022/06/28 08:30:31;;;;;;;2.60;0.70;;;20.70;99.90;;;19.84;100.00;98127.38;5011829;28;20054;-67
2022/06/28 08:33:00;;;;;;;1.33;0.50;;;20.90;99.90;;;20.16;100.00;98116.31;5015529;28;20069;-67
2022/06/28 08:35:27;;;;;;;3.05;0.47;;;21.00;99.90;;;20.11;100.00;98114.00;5015290;28;20087;-68
2022/06/28 08:37:54;;;;;;;1.65;0.40;;;20.90;99.90;;;20.15;100.00;98106.72;5019905;28;20478;-67
2022/06/28 08:40:25;;;;;;;5.63;0.65;;;20.90;99.90;;;20.09;100.00;98113.28;5019879;28;20084;-67
2022/06/28 08:42:54;;;;;;;4.32;0.70;;;21.10;99.90;;;20.09;100.00;98112.44;5019930;28;20143;-66
2022/06/28 08:45:23;;;;;;;2.40;0.52;;;21.20;99.90;;;20.11;100.00;98110.53;5017028;28;20057;-66
2022/06/28 08:47:55;;;;;;;2.13;0.50;;;21.10;99.90;;;20.14;100.00;98105.91;5017007;28;20125;-65
2022/06/28 08:50:34;;;;;;;7.22;0.75;;;21.20;99.90;;;20.25;100.00;98102.44;5010614;28;20054;-66
2022/06/28 08:53:07;;;;;;;4.93;0.82;;;21.10;99.90;;;20.50;100.00;98100.63;5020509;28;20569;-65
2022/06/28 08:55:36;;;;;;;1.85;0.45;;;21.40;99.90;;;20.59;100.00;98099.97;5018603;28;20052;-66
2022/06/28 08:58:08;;;;;;;2.80;0.60;;;21.50;99.90;;;20.97;100.00;98093.59;5019857;28;20084;-67
2022/06/28 09:00:35;;;;;;;1.67;0.60;;;21.80;99.90;;;21.00;100.00;98088.91;5025509;28;20053;-66
2022/06/28 09:03:03;;;;;;;3.15;0.50;;;21.90;99.90;;;20.73;100.00;98083.94;5016033;28;20057;-67
2022/06/28 09:05:30;;;;;;;2.38;0.60;;;21.90;99.90;;;21.04;100.00;98071.88;5017855;28;20127;-66
2022/06/28 09:07:58;;;;;;;1.08;0.40;;;21.90;99.90;;;21.23;100.00;98071.31;5017006;28;20100;-66
2022/06/28 09:10:26;;;;;;;2.15;0.63;;;22.10;99.90;;;21.69;100.00;98061.53;5018841;28;20132;-66
2022/06/28 09:13:16;;;;;;;1.63;0.50;;;22.50;99.90;;;21.17;100.00;98063.84;5013635;28;20049;-67
2022/06/28 09:15:53;;;;;;;3.90;0.60;;;22.50;99.90;;;21.52;100.00;98063.72;5015621;28;20053;-67
2022/06/28 09:18:27;;;;;;;5.88;0.73;;;22.80;99.90;;;22.14;100.00;98062.25;5015455;28;20145;-67
2022/06/28 09:20:57;;;;;;;2.03;0.60;;;23.20;99.90;;;22.32;100.00;98059.09;5031649;28;20054;-66
2022/06/28 09:23:28;;;;;;;4.50;0.50;;;23.30;99.90;;;21.68;100.00;98051.94;5014519;28;20096;-67
2022/06/28 09:25:58;;;;;;;3.58;0.50;;;22.90;99.90;;;22.12;100.00;98047.47;5022566;28;20595;-66
2022/06/28 09:28:29;;;;;;;5.53;0.60;;;23.20;99.90;;;22.28;100.00;98052.38;5013034;28;20077;-66
2022/06/28 09:31:26;;;;;;;1.52;0.35;;;23.10;99.90;;;22.90;100.00;98050.72;5013285;28;20053;-67
2022/06/28 09:34:08;;;;;;;3.05;0.50;;;;;;;23.16;100.00;98048.47;5016426;28;20061;-66
2022/06/28 09:36:55;;;;;;;2.22;0.60;;;23.70;99.90;;;23.45;100.00;98042.47;5013511;28;20081;-66
2022/06/28 09:39:28;;;;;;;2.50;0.50;;;23.90;99.90;;;23.65;100.00;98033.59;5015637;28;20081;-67
2022/06/28 09:41:57;;;;;;;4.60;0.52;;;24.00;99.90;;;23.86;100.00;98022.06;5015226;28;20041;-67
2022/06/28 09:44:53;;;;;;;2.40;0.60;;;24.10;99.90;;;25.05;100.00;98018.97;5016909;28;20045;-67
2022/06/28 09:47:21;;;;;;;1.75;0.47;;;24.90;99.90;;;24.83;100.00;98014.00;5013323;28;20144;-67
2022/06/28 09:49:50;;;;;;;3.78;0.50;;;24.90;99.90;;;24.63;100.00;98011.44;5017526;28;20045;-67
2022/06/28 09:52:23;;;;;;;2.50;0.80;;;24.70;99.90;;;24.30;100.00;98018.00;5011527;28;20587;-66
2022/06/28 09:54:56;;;;;;;2.67;0.50;;;24.80;99.60;;;24.85;100.00;98014.72;5009005;28;20082;-67
2022/06/28 09:57:23;;;;;;;1.67;0.50;;;24.70;99.30;;;24.89;100.00;98020.59;5017703;28;20164;-67
2022/06/28 09:59:51;;;;;;;2.13;0.50;;;24.90;99.40;;;24.65;100.00;98013.09;5020753;28;20848;-67
2022/06/28 10:02:18;;;;;;;2.67;0.60;;;24.80;98.60;;;24.30;100.00;98002.09;5014242;28;20136;-65
2022/06/28 10:04:46;;;;;;;1.73;0.60;;;24.70;98.00;;;24.62;100.00;98006.25;5014279;28;20046;-65
2022/06/28 10:07:14;;;;;;;3.40;0.70;;;25.00;98.00;;;24.30;100.00;98002.09;5011094;28;20084;-66
2022/06/28 10:09:42;;;;;;;3.55;0.55;;;24.80;98.20;;;25.17;100.00;98005.50;5015514;28;20559;-66
2022/06/28 10:15:01;;;;;;;3.25;0.45;;;25.30;98.10;;;25.92;100.00;97994.75;5014436;28;20072;-66
2022/06/28 10:17:51;;;;;;;2.85;0.65;;;26.00;98.40;;;25.19;100.00;97992.94;5013615;28;20163;-65
2022/06/28 10:20:31;;;;;;;2.10;0.30;;;25.90;97.40;;;25.62;100.00;97989.59;5012363;28;20551;-66
2022/06/28 10:23:28;;;;;;;1.92;0.50;;;25.50;96.10;;;26.42;100.00;97987.00;5014306;28;20077;-65
2022/06/28 10:26:19;;;;;;;1.33;0.40;;;25.80;95.70;;;26.52;100.00;97984.25;5014648;28;20078;-66
2022/06/28 10:29:01;;;;;;;2.70;0.60;;;26.00;95.80;;;26.48;100.00;97988.22;5013630;28;20092;-66
2022/06/28 10:31:31;;;;;;;2.55;0.50;;;26.30;95.80;;;26.20;100.00;97984.84;5015942;28;20077;-65
2022/06/28 10:34:22;;;;;;;1.33;0.40;;;25.90;95.00;;;27.53;100.00;97970.28;5016287;28;20140;-67